Duke Field,(Eglin Af Aux Nr 3) Airport
KEGI : rendu visible

Aérodrome :











RETROUVEZ-NOUS SUR...

 
LOGIN :

S'inscrire | Disclaimer

   EN    FR    IT 

 









Légende :    VFR   VFR Marginal   IFR   IFR Intensif   IFR Très Intensif
Visi : 
Plafond : 
>= 8 km
>= 3000ft
5 à 8 km
1000 à 3000 ft
1500m à 5 km
500 à 1000 ft
800 à 1500m
200 à 500 ft
< 800m
< 200 ft
Symboles :   Orages  Brouillard  Fortes neiges  Fortes précipitations  Vent > 20 kt






- Altitude de l'aérodrome : 191 ft


KEGI - Duke Field,(Eglin Af Aux Nr 3)

DERNIER METAR :
  • 121856Z AUTO 25007KT 10SM FEW180 FEW200 35/19 A2986 RMK AO2 SLP110 T03490192 $

METARs EXPIRÉS :
  • 121756Z AUTO 32007KT 10SM FEW150 FEW170 SCT200 34/18 A2989 RMK AO2 SLP120 T03440180 10344 20222 58006 $
  • 121656Z AUTO 26007KT 10SM FEW170 FEW200 34/18 A2991 RMK AO2 SLP127 T03350184 $

Prévision TAF périmée.
FIR KZJX / Amérique du Nord



MET'MAP, la Météo Aéronautique d'un coup d'oeil ! - Copyright ORBIFLY Décembre 2007 - Disclaimer

ORBIFLY MET'MAP TEAM :

Programmation & Développement : Alexandra Zaïnal
Sur une idée originale de : Baudouin d'Aumeries
Assistance à la programmation : Marc-Olivier Méhu
Soutien technique & logistique : Manuel Goepfert

Contact : metmap@orbifly.com




SOURCES & CREDITS :

   NOAA       Earth
Advisory